Hlavní strana
METAR-TAF:

METAR-TAF

Letiště :

Washington, Indiana, Spojené státy americké

zeměpisná šířka: 38-42-02N, zeměpisná délka: 087-07-47W, výška: 144 m

Aktuální stav počasí

Zpráva byla vytvořena před 33 minutami, v 23:55 UTC
Severní vítr 21 kt s nárazy do 28 kt
Teplota 7°C
Vlhkost vzduchu 93%
Tlak 1003 hPa
Viditelnost: 16.1 km
Zataženo ve výšce 1600 ft
mrholení

METAR: KDCY 192355Z AUTO 35021G28KT 10SM DZ OVC016 07/06 A2961 RMK AO2 P0002 60004 T00700059 10080 20068

Čas: 20:28 (00:28 UTC)


TAF: chybějící

Stav a předpovědi počasí z více než 4 000 letišť (zprávy METAR a TAF).

Červené a žluté tečky na mapě představují dostupné meteorologické stanice.

Když kurzor umístíte na tečku, zobrazí se název stanice.

Pak kliknutím zobrazíte stav a předpověď počasí.

Chcete-li změnit mapu, kliknutím na zelené tlačítko se znaménkem +mapu přiblížíte, kliknutím na zelené tlačítko se znaménkem – mapu oddálíte a kliknutím na zelené šipky přejdete na sousední mapy.


METAR-TAF: